Time,TemperatureF,DewpointF,PressureIn,WindDirection,WindDirectionDegrees,WindSpeedMPH,WindSpeedGustMPH,Humidity,HourlyPrecipIn,Conditions,Clouds,dailyrainin,SoftwareType,DateUTC
2013-07-08 00:00:00,77.6,73.1,30.04,WNW,300,5.0,5.0,86,0.00,,,0.00,Wunderground v.1.15,2013-07-08 04:00:00,
2013-07-08 00:01:00,77.6,73.1,30.04,WNW,300,6.0,6.0,86,0.00,,,0.00,Wunderground v.1.15,2013-07-08 04:01:00,
2013-07-08 00:02:00,77.6,73.1,30.04,WNW,300,6.0,6.0,86,0.00,,,0.00,Wunderground v.1.15,2013-07-08 04:02:00,
2013-07-08 00:06:00,77.6,73.4,30.03,WNW,299,6.0,6.0,87,0.00,,,0.00,Wunderground v.1.15,2013-07-08 04:06:00,
2013-07-08 00:07:00,77.6,73.4,30.03,WNW,300,4.0,6.0,87,0.00,,,0.00,Wunderground v.1.15,2013-07-08 04:07:00,
2013-07-08 00:08:00,77.7,73.9,30.03,WNW,300,6.0,6.0,88,0.00,,,0.00,Wunderground v.1.15,2013-07-08 04:08:00,
2013-07-08 00:14:00,77.7,74.2,30.04,WNW,284,6.0,6.0,89,0.00,,,0.00,Wunderground v.1.15,2013-07-08 04:14:00,
2013-07-08 00:19:00,77.7,74.2,30.04,West,271,5.0,6.0,89,0.00,,,0.00,Wunderground v.1.15,2013-07-08 04:19:00,
2013-07-08 00:25:00,77.7,74.5,30.04,West,267,6.0,8.0,90,0.00,,,0.00,Wunderground v.1.15,2013-07-08 04:25:00,
2013-07-08 00:30:00,77.6,74.4,30.04,WSW,248,6.0,6.0,90,0.00,,,0.00,Wunderground v.1.15,2013-07-08 04:30:00,
2013-07-08 00:35:00,77.5,74.0,30.04,WSW,241,6.0,9.0,89,0.00,,,0.00,Wunderground v.1.15,2013-07-08 04:35:00,
2013-07-08 00:41:00,77.3,73.8,30.03,WSW,246,4.0,6.0,89,0.00,,,0.00,Wunderground v.1.15,2013-07-08 04:41:00,
2013-07-08 00:46:00,77.2,73.4,30.03,WSW,246,4.0,6.0,88,0.00,,,0.00,Wunderground v.1.15,2013-07-08 04:46:00,
2013-07-08 00:51:00,77.3,74.1,30.03,WSW,244,4.0,5.0,90,0.00,,,0.00,Wunderground v.1.15,2013-07-08 04:51:00,
2013-07-08 00:57:00,77.2,74.0,30.03,WSW,244,1.0,6.0,90,0.00,,,0.00,Wunderground v.1.15,2013-07-08 04:57:00,
2013-07-08 01:02:00,77.1,73.9,30.03,WSW,244,5.0,5.0,90,0.00,,,0.00,Wunderground v.1.15,2013-07-08 05:02:00,
2013-07-08 01:07:00,77.0,73.8,30.03,WSW,244,6.0,6.0,90,0.00,,,0.00,Wunderground v.1.15,2013-07-08 05:07:00,
2013-07-08 01:13:00,77.1,74.3,30.03,WSW,244,2.0,5.0,91,0.00,,,0.00,Wunderground v.1.15,2013-07-08 05:13:00,
2013-07-08 01:19:00,77.2,74.7,30.03,WSW,244,4.0,5.0,92,0.00,,,0.00,Wunderground v.1.15,2013-07-08 05:19:00,
2013-07-08 01:25:00,77.3,74.8,30.03,SSW,213,6.0,7.0,92,0.00,,,0.00,Wunderground v.1.15,2013-07-08 05:25:00,
2013-07-08 01:30:00,77.2,74.4,30.02,SSW,213,3.0,5.0,91,0.00,,,0.00,Wunderground v.1.15,2013-07-08 05:30:00,
2013-07-08 01:35:00,77.2,74.4,30.02,SW,217,3.0,5.0,91,0.00,,,0.00,Wunderground v.1.15,2013-07-08 05:35:00,
2013-07-08 01:40:00,77.3,74.8,30.02,SW,217,5.0,5.0,92,0.00,,,0.00,Wunderground v.1.15,2013-07-08 05:40:00,
2013-07-08 01:45:00,77.4,74.9,30.02,SSW,208,7.0,7.0,92,0.00,,,0.00,Wunderground v.1.15,2013-07-08 05:45:00,
2013-07-08 01:51:00,77.5,75.3,30.02,SSW,203,4.0,6.0,93,0.00,,,0.00,Wunderground v.1.15,2013-07-08 05:51:00,
2013-07-08 01:57:00,77.6,75.4,30.02,SSW,203,5.0,7.0,93,0.00,,,0.00,Wunderground v.1.15,2013-07-08 05:57:00,
2013-07-08 02:02:00,77.6,75.1,30.03,SW,215,6.0,7.0,92,0.00,,,0.00,Wunderground v.1.15,2013-07-08 06:02:00,
2013-07-08 02:07:00,77.8,75.3,30.03,SW,217,5.0,7.0,92,0.00,,,0.00,Wunderground v.1.15,2013-07-08 06:07:00,
2013-07-08 02:12:00,77.8,75.3,30.02,SW,219,6.0,7.0,92,0.00,,,0.00,Wunderground v.1.15,2013-07-08 06:12:00,
2013-07-08 02:17:00,77.8,75.0,30.03,WSW,253,9.0,10.0,91,0.00,,,0.00,Wunderground v.1.15,2013-07-08 06:17:00,
2013-07-08 02:22:00,77.9,74.7,30.03,West,275,9.0,9.0,90,0.00,,,0.00,Wunderground v.1.15,2013-07-08 06:22:00,
2013-07-08 02:28:00,78.0,74.8,30.03,West,273,7.0,9.0,90,0.00,,,0.00,Wunderground v.1.15,2013-07-08 06:28:00,
2013-07-08 02:33:00,78.1,74.9,30.03,West,273,6.0,7.0,90,0.00,,,0.00,Wunderground v.1.15,2013-07-08 06:33:00,
2013-07-08 02:38:00,78.1,74.9,30.03,West,278,6.0,7.0,90,0.00,,,0.00,Wunderground v.1.15,2013-07-08 06:38:00,
2013-07-08 02:43:00,78.1,75.3,30.03,West,280,5.0,7.0,91,0.00,,,0.00,Wunderground v.1.15,2013-07-08 06:43:00,
2013-07-08 02:48:00,78.0,75.2,30.03,WNW,284,5.0,8.0,91,0.00,,,0.00,Wunderground v.1.15,2013-07-08 06:48:00,
2013-07-08 02:53:00,78.0,75.2,30.03,WNW,284,4.0,6.0,91,0.00,,,0.00,Wunderground v.1.15,2013-07-08 06:53:00,
2013-07-08 02:58:00,77.9,75.4,30.02,WNW,286,6.0,7.0,92,0.00,,,0.00,Wunderground v.1.15,2013-07-08 06:58:00,
2013-07-08 03:03:00,77.8,75.3,30.03,WNW,287,6.0,6.0,92,0.00,,,0.00,Wunderground v.1.15,2013-07-08 07:03:00,
2013-07-08 03:08:00,77.6,74.8,30.03,WNW,288,5.0,6.0,91,0.00,,,0.00,Wunderground v.1.15,2013-07-08 07:08:00,
2013-07-08 03:13:00,77.6,75.1,30.03,NW,309,1.0,5.0,92,0.00,,,0.00,Wunderground v.1.15,2013-07-08 07:13:00,
2013-07-08 03:18:00,77.4,74.6,30.02,NW,309,0.0,5.0,91,0.00,,,0.00,Wunderground v.1.15,2013-07-08 07:18:00,
2013-07-08 03:23:00,77.2,74.4,30.02,NW,309,0.0,2.0,91,0.00,,,0.00,Wunderground v.1.15,2013-07-08 07:23:00,
2013-07-08 03:28:00,77.1,74.3,30.03,NW,309,0.0,2.0,91,0.00,,,0.00,Wunderground v.1.15,2013-07-08 07:28:00,
2013-07-08 03:33:00,77.0,74.2,30.03,NW,309,0.0,2.0,91,0.00,,,0.00,Wunderground v.1.15,2013-07-08 07:33:00,
2013-07-08 03:38:00,76.9,74.4,30.04,NW,309,4.0,5.0,92,0.00,,,0.00,Wunderground v.1.15,2013-07-08 07:38:00,
2013-07-08 03:43:00,76.9,74.4,30.05,NW,307,3.0,5.0,92,0.00,,,0.00,Wunderground v.1.15,2013-07-08 07:43:00,
2013-07-08 03:48:00,77.0,74.5,30.04,NW,307,4.0,7.0,92,0.00,,,0.00,Wunderground v.1.15,2013-07-08 07:48:00,
2013-07-08 03:53:00,77.2,74.7,30.04,NW,307,5.0,7.0,92,0.00,,,0.00,Wunderground v.1.15,2013-07-08 07:53:00,
2013-07-08 03:58:00,77.3,74.5,30.04,NW,306,4.0,7.0,91,0.00,,,0.00,Wunderground v.1.15,2013-07-08 07:58:00,
2013-07-08 04:03:00,77.4,74.6,30.04,NW,306,5.0,7.0,91,0.00,,,0.00,Wunderground v.1.15,2013-07-08 08:03:00,
2013-07-08 04:08:00,77.4,74.6,30.04,NW,306,4.0,7.0,91,0.00,,,0.00,Wunderground v.1.15,2013-07-08 08:08:00,
2013-07-08 04:13:00,77.5,75.0,30.04,NW,306,5.0,6.0,92,0.00,,,0.00,Wunderground v.1.15,2013-07-08 08:13:00,
2013-07-08 04:18:00,77.5,75.0,30.04,NW,306,5.0,7.0,92,0.00,,,0.00,Wunderground v.1.15,2013-07-08 08:18:00,
2013-07-08 04:23:00,77.4,74.6,30.04,WNW,300,6.0,7.0,91,0.00,,,0.00,Wunderground v.1.15,2013-07-08 08:23:00,
2013-07-08 04:28:00,77.5,74.7,30.04,WNW,296,6.0,7.0,91,0.00,,,0.00,Wunderground v.1.15,2013-07-08 08:28:00,
2013-07-08 04:33:00,77.4,74.6,30.05,WNW,296,7.0,9.0,91,0.00,,,0.00,Wunderground v.1.15,2013-07-08 08:33:00,
2013-07-08 04:38:00,77.4,74.2,30.05,WNW,288,9.0,9.0,90,0.00,,,0.00,Wunderground v.1.15,2013-07-08 08:38:00,
2013-07-08 04:43:00,77.4,73.9,30.05,WNW,284,9.0,10.0,89,0.00,,,0.00,Wunderground v.1.15,2013-07-08 08:43:00,
2013-07-08 04:48:00,77.4,74.2,30.05,WNW,284,5.0,10.0,90,0.00,,,0.00,Wunderground v.1.15,2013-07-08 08:48:00,
2013-07-08 04:53:00,77.4,74.2,30.04,WNW,286,6.0,10.0,90,0.00,,,0.00,Wunderground v.1.15,2013-07-08 08:53:00,
2013-07-08 04:58:00,77.3,74.1,30.04,WNW,297,10.0,11.0,90,0.00,,,0.00,Wunderground v.1.15,2013-07-08 08:58:00,
2013-07-08 05:03:00,77.3,74.1,30.04,WNW,286,7.0,13.0,90,0.00,,,0.00,Wunderground v.1.15,2013-07-08 09:03:00,
2013-07-08 05:08:00,77.2,74.0,30.04,WNW,290,11.0,13.0,90,0.00,,,0.00,Wunderground v.1.15,2013-07-08 09:08:00,
2013-07-08 05:13:00,77.1,73.9,30.04,WNW,291,7.0,11.0,90,0.00,,,0.00,Wunderground v.1.15,2013-07-08 09:13:00,
2013-07-08 05:18:00,77.1,74.3,30.04,WNW,284,10.0,12.0,91,0.00,,,0.00,Wunderground v.1.15,2013-07-08 09:18:00,
2013-07-08 05:23:00,77.1,74.6,30.04,West,280,10.0,11.0,92,0.00,,,0.00,Wunderground v.1.15,2013-07-08 09:23:00,
2013-07-08 05:28:00,76.9,74.1,30.04,WNW,286,6.0,11.0,91,0.00,,,0.00,Wunderground v.1.15,2013-07-08 09:28:00,
2013-07-08 05:33:00,76.9,74.4,30.04,WNW,284,10.0,11.0,92,0.00,,,0.00,Wunderground v.1.15,2013-07-08 09:33:00,
2013-07-08 05:38:00,76.7,74.2,30.05,WNW,283,10.0,12.0,92,0.00,,,0.00,Wunderground v.1.15,2013-07-08 09:38:00,
2013-07-08 05:44:00,76.8,74.3,30.05,WNW,289,10.0,13.0,92,0.00,,,0.00,Wunderground v.1.15,2013-07-08 09:44:00,
2013-07-08 05:49:00,76.7,74.2,30.05,West,276,7.0,13.0,92,0.00,,,0.00,Wunderground v.1.15,2013-07-08 09:49:00,
2013-07-08 05:54:00,76.5,74.0,30.05,WNW,283,5.0,11.0,92,0.00,,,0.00,Wunderground v.1.15,2013-07-08 09:54:00,
2013-07-08 05:58:00,76.5,74.0,30.05,WNW,285,7.0,11.0,92,0.00,,,0.00,Wunderground v.1.15,2013-07-08 09:58:00,
2013-07-08 06:03:00,76.5,74.3,30.05,WNW,290,9.0,11.0,93,0.00,,,0.00,Wunderground v.1.15,2013-07-08 10:03:00,
2013-07-08 06:08:00,76.4,74.2,30.05,West,281,9.0,11.0,93,0.00,,,0.00,Wunderground v.1.15,2013-07-08 10:08:00,
2013-07-08 06:14:00,76.4,74.2,30.05,WNW,286,8.0,12.0,93,0.00,,,0.00,Wunderground v.1.15,2013-07-08 10:14:00,
2013-07-08 06:19:00,76.4,74.2,30.06,WNW,287,9.0,12.0,93,0.00,,,0.00,Wunderground v.1.15,2013-07-08 10:19:00,
2013-07-08 06:24:00,76.3,74.4,30.05,WNW,286,12.0,12.0,94,0.00,,,0.00,Wunderground v.1.15,2013-07-08 10:24:00,
2013-07-08 06:29:00,76.3,74.4,30.05,WNW,286,9.0,12.0,94,0.00,,,0.00,Wunderground v.1.15,2013-07-08 10:29:00,
2013-07-08 06:34:00,76.1,74.2,30.05,WNW,292,7.0,10.0,94,0.00,,,0.00,Wunderground v.1.15,2013-07-08 10:34:00,
2013-07-08 06:39:00,76.0,74.1,30.05,WNW,301,6.0,10.0,94,0.00,,,0.00,Wunderground v.1.15,2013-07-08 10:39:00,
2013-07-08 06:44:00,75.9,74.0,30.06,WNW,289,6.0,10.0,94,0.00,,,0.00,Wunderground v.1.15,2013-07-08 10:44:00,
2013-07-08 06:49:00,76.0,74.5,30.06,West,279,10.0,12.0,95,0.00,,,0.00,Wunderground v.1.15,2013-07-08 10:49:00,
2013-07-08 06:54:00,76.1,74.6,30.07,West,274,12.0,15.0,95,0.00,,,0.00,Wunderground v.1.15,2013-07-08 10:54:00,
2013-07-08 06:59:00,76.0,74.5,30.07,West,263,11.0,15.0,95,0.00,,,0.00,Wunderground v.1.15,2013-07-08 10:59:00,
2013-07-08 07:04:00,76.0,74.8,30.05,NW,309,7.0,12.0,96,0.00,,,0.00,Wunderground v.1.15,2013-07-08 11:04:00,
2013-07-08 07:09:00,75.8,74.3,30.05,NW,322,4.0,12.0,95,0.00,,,0.00,Wunderground v.1.15,2013-07-08 11:09:00,
2013-07-08 07:14:00,75.7,74.2,30.06,NNW,328,3.0,9.0,95,0.00,,,0.00,Wunderground v.1.15,2013-07-08 11:14:00,
2013-07-08 07:19:00,75.9,74.4,30.06,NW,323,4.0,9.0,95,0.00,,,0.00,Wunderground v.1.15,2013-07-08 11:19:00,
2013-07-08 07:24:00,75.9,74.4,30.07,WSW,257,5.0,10.0,95,0.00,,,0.00,Wunderground v.1.15,2013-07-08 11:24:00,
2013-07-08 07:29:00,76.0,74.1,30.07,WSW,250,5.0,10.0,94,0.00,,,0.00,Wunderground v.1.15,2013-07-08 11:29:00,
2013-07-08 07:34:00,76.2,74.7,30.07,WSW,257,6.0,8.0,95,0.00,,,0.00,Wunderground v.1.15,2013-07-08 11:34:00,
2013-07-08 07:39:00,76.2,74.3,30.07,WSW,254,4.0,9.0,94,0.00,,,0.00,Wunderground v.1.15,2013-07-08 11:39:00,
2013-07-08 07:44:00,76.4,74.9,30.07,WSW,255,6.0,7.0,95,0.00,,,0.00,Wunderground v.1.15,2013-07-08 11:44:00,
2013-07-08 07:49:00,76.4,74.5,30.07,WSW,254,5.0,7.0,94,0.00,,,0.00,Wunderground v.1.15,2013-07-08 11:49:00,
2013-07-08 07:55:00,76.5,74.6,30.07,WSW,254,4.0,6.0,94,0.00,,,0.00,Wunderground v.1.15,2013-07-08 11:55:00,
2013-07-08 08:00:00,76.5,74.6,30.07,WSW,254,4.0,5.0,94,0.00,,,0.00,Wunderground v.1.15,2013-07-08 12:00:00,
2013-07-08 08:05:00,76.5,74.3,30.07,WSW,254,5.0,7.0,93,0.00,,,0.00,Wunderground v.1.15,2013-07-08 12:05:00,
2013-07-08 08:10:00,76.6,74.4,30.08,WSW,254,6.0,6.0,93,0.00,,,0.00,Wunderground v.1.15,2013-07-08 12:10:00,
2013-07-08 08:15:00,76.7,74.5,30.08,WSW,253,5.0,8.0,93,0.00,,,0.00,Wunderground v.1.15,2013-07-08 12:15:00,
2013-07-08 08:20:00,76.9,74.7,30.08,SW,235,6.0,6.0,93,0.00,,,0.00,Wunderground v.1.15,2013-07-08 12:20:00,
2013-07-08 08:25:00,77.0,75.1,30.08,WSW,239,6.0,9.0,94,0.00,,,0.00,Wunderground v.1.15,2013-07-08 12:25:00,
2013-07-08 08:30:00,77.0,74.8,30.08,West,259,6.0,7.0,93,0.00,,,0.00,Wunderground v.1.15,2013-07-08 12:30:00,
2013-07-08 08:35:00,77.0,74.8,30.08,WSW,250,5.0,9.0,93,0.00,,,0.00,Wunderground v.1.15,2013-07-08 12:35:00,
2013-07-08 08:40:00,77.0,74.8,30.08,West,269,5.0,6.0,93,0.00,,,0.00,Wunderground v.1.15,2013-07-08 12:40:00,
2013-07-08 08:45:00,77.0,74.8,30.07,WNW,288,8.0,10.0,93,0.00,,,0.00,Wunderground v.1.15,2013-07-08 12:45:00,
2013-07-08 08:50:00,76.9,74.4,30.07,WNW,294,9.0,9.0,92,0.00,,,0.00,Wunderground v.1.15,2013-07-08 12:50:00,
2013-07-08 08:55:00,76.8,74.3,30.07,WNW,298,8.0,11.0,92,0.00,,,0.00,Wunderground v.1.15,2013-07-08 12:55:00,
2013-07-08 09:00:00,76.8,74.3,30.07,WNW,284,10.0,12.0,92,0.00,,,0.00,Wunderground v.1.15,2013-07-08 13:00:00,
2013-07-08 09:05:00,76.9,74.7,30.07,WNW,284,11.0,13.0,93,0.00,,,0.00,Wunderground v.1.15,2013-07-08 13:05:00,
2013-07-08 09:10:00,77.0,75.1,30.07,West,277,10.0,13.0,94,0.00,,,0.00,Wunderground v.1.15,2013-07-08 13:10:00,
2013-07-08 09:16:00,76.9,75.0,30.07,West,263,10.0,13.0,94,0.00,,,0.00,Wunderground v.1.15,2013-07-08 13:16:00,
2013-07-08 09:21:00,76.7,74.8,30.07,West,266,10.0,11.0,94,0.00,,,0.00,Wunderground v.1.15,2013-07-08 13:21:00,
2013-07-08 09:26:00,76.6,74.4,30.07,West,267,9.0,12.0,93,0.00,,,0.00,Wunderground v.1.15,2013-07-08 13:26:00,
2013-07-08 09:31:00,76.7,74.5,30.07,West,272,11.0,12.0,93,0.00,,,0.00,Wunderground v.1.15,2013-07-08 13:31:00,
2013-07-08 09:36:00,76.7,74.5,30.08,WSW,252,9.0,12.0,93,0.00,,,0.00,Wunderground v.1.15,2013-07-08 13:36:00,
2013-07-08 09:41:00,76.8,74.9,30.08,WSW,251,10.0,10.0,94,0.00,,,0.00,Wunderground v.1.15,2013-07-08 13:41:00,
2013-07-08 09:46:00,76.9,74.7,30.08,WSW,254,7.0,12.0,93,0.00,,,0.00,Wunderground v.1.15,2013-07-08 13:46:00,
2013-07-08 09:51:00,77.1,75.2,30.08,WSW,240,10.0,10.0,94,0.00,,,0.00,Wunderground v.1.15,2013-07-08 13:51:00,
2013-07-08 09:56:00,77.4,75.5,30.08,SW,223,7.0,12.0,94,0.00,,,0.00,Wunderground v.1.15,2013-07-08 13:56:00,
2013-07-08 10:01:00,77.7,75.8,30.08,SW,227,10.0,11.0,94,0.00,,,0.00,Wunderground v.1.15,2013-07-08 14:01:00,
2013-07-08 10:06:00,77.8,75.6,30.08,SW,232,10.0,12.0,93,0.00,,,0.00,Wunderground v.1.15,2013-07-08 14:06:00,
2013-07-08 10:11:00,77.8,75.3,30.08,WSW,238,6.0,9.0,92,0.00,,,0.00,Wunderground v.1.15,2013-07-08 14:11:00,
2013-07-08 10:16:00,77.9,75.7,30.08,WSW,240,10.0,11.0,93,0.00,,,0.00,Wunderground v.1.15,2013-07-08 14:16:00,
2013-07-08 10:21:00,77.8,75.0,30.08,WSW,238,10.0,11.0,91,0.00,,,0.00,Wunderground v.1.15,2013-07-08 14:21:00,
2013-07-08 10:26:00,77.8,75.3,30.08,WSW,248,9.0,11.0,92,0.00,,,0.00,Wunderground v.1.15,2013-07-08 14:26:00,
2013-07-08 10:31:00,77.8,75.3,30.08,WSW,244,7.0,10.0,92,0.00,,,0.00,Wunderground v.1.15,2013-07-08 14:31:00,
2013-07-08 10:36:00,77.8,75.0,30.08,WSW,242,8.0,10.0,91,0.00,,,0.00,Wunderground v.1.15,2013-07-08 14:36:00,
2013-07-08 10:41:00,77.9,75.4,30.08,WSW,246,8.0,9.0,92,0.00,,,0.00,Wunderground v.1.15,2013-07-08 14:41:00,
2013-07-08 10:46:00,77.9,75.1,30.08,WSW,248,9.0,9.0,91,0.00,,,0.00,Wunderground v.1.15,2013-07-08 14:46:00,
2013-07-08 10:51:00,78.0,75.5,30.08,WSW,246,10.0,10.0,92,0.00,,,0.00,Wunderground v.1.15,2013-07-08 14:51:00,
2013-07-08 10:56:00,78.0,75.5,30.08,WSW,252,10.0,10.0,92,0.00,,,0.00,Wunderground v.1.15,2013-07-08 14:56:00,
2013-07-08 11:01:00,78.0,75.2,30.09,WSW,246,7.0,12.0,91,0.00,,,0.00,Wunderground v.1.15,2013-07-08 15:01:00,
2013-07-08 11:06:00,78.0,75.5,30.08,WSW,242,9.0,12.0,92,0.00,,,0.00,Wunderground v.1.15,2013-07-08 15:06:00,
2013-07-08 11:11:00,78.2,75.7,30.09,WSW,248,10.0,11.0,92,0.00,,,0.00,Wunderground v.1.15,2013-07-08 15:11:00,
2013-07-08 11:16:00,78.4,75.6,30.09,SW,231,7.0,12.0,91,0.00,,,0.00,Wunderground v.1.15,2013-07-08 15:16:00,
2013-07-08 11:21:00,78.7,76.2,30.08,WSW,245,9.0,11.0,92,0.00,,,0.00,Wunderground v.1.15,2013-07-08 15:21:00,
2013-07-08 11:26:00,79.0,76.5,30.08,SW,232,10.0,12.0,92,0.00,,,0.00,Wunderground v.1.15,2013-07-08 15:26:00,
2013-07-08 11:31:00,79.2,76.3,30.09,WSW,244,11.0,11.0,91,0.00,,,0.00,Wunderground v.1.15,2013-07-08 15:31:00,
2013-07-08 11:36:00,79.2,76.0,30.08,WSW,241,9.0,12.0,90,0.00,,,0.00,Wunderground v.1.15,2013-07-08 15:36:00,
2013-07-08 11:41:00,79.3,76.1,30.08,SSW,213,10.0,11.0,90,0.00,,,0.00,Wunderground v.1.15,2013-07-08 15:41:00,
2013-07-08 11:46:00,79.3,76.1,30.08,WSW,240,8.0,12.0,90,0.00,,,0.00,Wunderground v.1.15,2013-07-08 15:46:00,
2013-07-08 11:51:00,79.3,75.8,30.08,WSW,241,8.0,11.0,89,0.00,,,0.00,Wunderground v.1.15,2013-07-08 15:51:00,
2013-07-08 11:56:00,79.3,75.4,30.08,WSW,239,7.0,11.0,88,0.00,,,0.00,Wunderground v.1.15,2013-07-08 15:56:00,
2013-07-08 12:01:00,79.6,76.1,30.08,WSW,238,7.0,11.0,89,0.00,,,0.00,Wunderground v.1.15,2013-07-08 16:01:00,
2013-07-08 12:06:00,79.7,75.8,30.08,SW,227,7.0,11.0,88,0.00,,,0.00,Wunderground v.1.15,2013-07-08 16:06:00,
2013-07-08 12:11:00,80.0,76.1,30.08,SW,234,5.0,9.0,88,0.00,,,0.00,Wunderground v.1.15,2013-07-08 16:11:00,
2013-07-08 12:16:00,80.5,76.6,30.08,SW,214,6.0,9.0,88,0.00,,,0.00,Wunderground v.1.15,2013-07-08 16:16:00,
2013-07-08 12:21:00,80.6,76.4,30.08,SW,230,6.0,9.0,87,0.00,,,0.00,Wunderground v.1.15,2013-07-08 16:21:00,
2013-07-08 12:27:00,80.8,76.9,30.08,SSW,209,3.0,9.0,88,0.00,,,0.00,Wunderground v.1.15,2013-07-08 16:27:00,
2013-07-08 12:32:00,81.1,76.9,30.08,WSW,238,6.0,9.0,87,0.00,,,0.00,Wunderground v.1.15,2013-07-08 16:32:00,
2013-07-08 12:37:00,81.1,76.2,30.08,SW,229,5.0,9.0,85,0.00,,,0.00,Wunderground v.1.15,2013-07-08 16:37:00,
2013-07-08 12:42:00,81.2,76.3,30.08,WSW,238,6.0,10.0,85,0.00,,,0.00,Wunderground v.1.15,2013-07-08 16:42:00,
2013-07-08 12:47:00,81.4,76.5,30.07,SW,232,5.0,10.0,85,0.00,,,0.00,Wunderground v.1.15,2013-07-08 16:47:00,
2013-07-08 12:52:00,81.5,76.6,30.07,SW,217,4.0,6.0,85,0.00,,,0.00,Wunderground v.1.15,2013-07-08 16:52:00,
2013-07-08 12:58:00,81.7,76.0,30.07,SW,233,7.0,7.0,83,0.00,,,0.00,Wunderground v.1.15,2013-07-08 16:58:00,
2013-07-08 13:03:00,81.9,76.9,30.07,SW,233,5.0,9.0,85,0.00,,,0.00,Wunderground v.1.15,2013-07-08 17:03:00,
2013-07-08 13:08:00,82.1,77.1,30.07,SW,217,6.0,9.0,85,0.00,,,0.00,Wunderground v.1.15,2013-07-08 17:08:00,
2013-07-08 13:13:00,82.1,76.1,30.07,SW,215,4.0,6.0,82,0.00,,,0.00,Wunderground v.1.15,2013-07-08 17:13:00,
2013-07-08 13:18:00,82.1,76.8,30.06,SW,225,5.0,9.0,84,0.00,,,0.00,Wunderground v.1.15,2013-07-08 17:18:00,
2013-07-08 13:23:00,82.5,76.8,30.06,WSW,244,5.0,6.0,83,0.00,,,0.00,Wunderground v.1.15,2013-07-08 17:23:00,
2013-07-08 13:28:00,82.8,77.1,30.06,SW,215,5.0,7.0,83,0.00,,,0.00,Wunderground v.1.15,2013-07-08 17:28:00,
2013-07-08 13:34:00,83.0,77.3,30.06,SSW,207,4.0,7.0,83,0.00,,,0.00,Wunderground v.1.15,2013-07-08 17:34:00,
2013-07-08 13:39:00,83.1,77.4,30.06,SW,220,5.0,9.0,83,0.00,,,0.00,Wunderground v.1.15,2013-07-08 17:39:00,
2013-07-08 13:44:00,83.3,77.6,30.06,SSW,211,6.0,7.0,83,0.00,,,0.00,Wunderground v.1.15,2013-07-08 17:44:00,
2013-07-08 13:49:00,83.3,76.9,30.06,SW,215,6.0,7.0,81,0.00,,,0.00,Wunderground v.1.15,2013-07-08 17:49:00,
2013-07-08 13:54:00,83.4,77.3,30.06,SSW,198,5.0,5.0,82,0.00,,,0.00,Wunderground v.1.15,2013-07-08 17:54:00,
2013-07-08 13:59:00,83.5,77.1,30.05,West,260,4.0,7.0,81,0.00,,,0.00,Wunderground v.1.15,2013-07-08 17:59:00,
2013-07-08 14:05:00,83.5,76.3,30.05,SW,221,5.0,5.0,79,0.00,,,0.00,Wunderground v.1.15,2013-07-08 18:05:00,
2013-07-08 14:10:00,83.4,76.6,30.05,WSW,248,9.0,9.0,80,0.00,,,0.00,Wunderground v.1.15,2013-07-08 18:10:00,
2013-07-08 14:16:00,83.2,76.8,30.05,West,267,5.0,10.0,81,0.00,,,0.00,Wunderground v.1.15,2013-07-08 18:16:00,
2013-07-08 14:22:00,83.2,76.4,30.05,WSW,254,7.0,9.0,80,0.00,,,0.00,Wunderground v.1.15,2013-07-08 18:22:00,
2013-07-08 14:27:00,83.1,76.3,30.05,WSW,251,7.0,9.0,80,0.00,,,0.00,Wunderground v.1.15,2013-07-08 18:27:00,
2013-07-08 14:32:00,83.0,75.8,30.05,WSW,244,6.0,10.0,79,0.00,,,0.00,Wunderground v.1.15,2013-07-08 18:32:00,
2013-07-08 14:37:00,82.8,76.4,30.05,WSW,244,7.0,10.0,81,0.00,,,0.00,Wunderground v.1.15,2013-07-08 18:37:00,
2013-07-08 14:42:00,82.8,75.6,30.05,WSW,244,7.0,10.0,79,0.00,,,0.00,Wunderground v.1.15,2013-07-08 18:42:00,
2013-07-08 14:48:00,82.8,75.6,30.05,WSW,244,7.0,10.0,79,0.00,,,0.00,Wunderground v.1.15,2013-07-08 18:48:00,
2013-07-08 14:53:00,82.8,75.6,30.05,WSW,244,9.0,9.0,79,0.00,,,0.00,Wunderground v.1.15,2013-07-08 18:53:00,
2013-07-08 14:58:00,82.9,76.8,30.05,WSW,250,9.0,12.0,82,0.00,,,0.00,Wunderground v.1.15,2013-07-08 18:58:00,
2013-07-08 15:03:00,82.9,76.5,30.05,West,259,10.0,11.0,81,0.00,,,0.00,Wunderground v.1.15,2013-07-08 19:03:00,
2013-07-08 15:08:00,82.9,76.5,30.05,West,260,11.0,13.0,81,0.00,,,0.00,Wunderground v.1.15,2013-07-08 19:08:00,
2013-07-08 15:13:00,83.1,76.3,30.05,West,263,7.0,13.0,80,0.00,,,0.00,Wunderground v.1.15,2013-07-08 19:13:00,
2013-07-08 15:19:00,83.2,77.1,30.05,West,260,11.0,13.0,82,0.00,,,0.00,Wunderground v.1.15,2013-07-08 19:19:00,
2013-07-08 15:24:00,83.1,76.3,30.05,WSW,250,8.0,11.0,80,0.00,,,0.00,Wunderground v.1.15,2013-07-08 19:24:00,
2013-07-08 15:29:00,83.1,75.9,30.04,WSW,249,10.0,11.0,79,0.00,,,0.00,Wunderground v.1.15,2013-07-08 19:29:00,
2013-07-08 15:35:00,83.2,77.1,30.04,WSW,240,9.0,10.0,82,0.00,,,0.00,Wunderground v.1.15,2013-07-08 19:35:00,
2013-07-08 15:41:00,83.3,76.9,30.04,WSW,248,9.0,10.0,81,0.00,,,0.00,Wunderground v.1.15,2013-07-08 19:41:00,
2013-07-08 15:46:00,83.2,76.4,30.04,West,268,8.0,12.0,80,0.00,,,0.00,Wunderground v.1.15,2013-07-08 19:46:00,
2013-07-08 15:51:00,83.1,76.3,30.04,West,271,8.0,10.0,80,0.00,,,0.00,Wunderground v.1.15,2013-07-08 19:51:00,
2013-07-08 15:56:00,82.8,76.7,30.04,WNW,302,11.0,12.0,82,0.00,,,0.00,Wunderground v.1.15,2013-07-08 19:56:00,
2013-07-08 16:01:00,82.7,76.3,30.04,WNW,287,11.0,11.0,81,0.00,,,0.00,Wunderground v.1.15,2013-07-08 20:01:00,
2013-07-08 16:07:00,82.7,75.9,30.04,WNW,295,9.0,13.0,80,0.00,,,0.00,Wunderground v.1.15,2013-07-08 20:07:00,
2013-07-08 16:12:00,82.7,75.5,30.04,WNW,295,5.0,10.0,79,0.00,,,0.00,Wunderground v.1.15,2013-07-08 20:12:00,
2013-07-08 16:17:00,83.0,76.2,30.03,WNW,294,5.0,10.0,80,0.00,,,0.00,Wunderground v.1.15,2013-07-08 20:17:00,
2013-07-08 16:23:00,83.2,75.6,30.03,WNW,293,7.0,7.0,78,0.00,,,0.00,Wunderground v.1.15,2013-07-08 20:23:00,
2013-07-08 16:30:00,83.4,75.0,30.03,WNW,288,6.0,6.0,76,0.00,,,0.00,Wunderground v.1.15,2013-07-08 20:30:00,
2013-07-08 16:35:00,83.5,75.1,30.03,WNW,289,4.0,6.0,76,0.00,,,0.00,Wunderground v.1.15,2013-07-08 20:35:00,
2013-07-08 16:40:00,83.7,75.3,30.03,WNW,287,3.0,5.0,76,0.00,,,0.00,Wunderground v.1.15,2013-07-08 20:40:00,
2013-07-08 16:46:00,84.0,75.6,30.03,West,281,2.0,5.0,76,0.00,,,0.00,Wunderground v.1.15,2013-07-08 20:46:00,
2013-07-08 16:52:00,84.3,75.5,30.03,West,269,4.0,4.0,75,0.00,,,0.00,Wunderground v.1.15,2013-07-08 20:52:00,
2013-07-08 16:57:00,84.5,75.7,30.03,West,269,3.0,4.0,75,0.00,,,0.00,Wunderground v.1.15,2013-07-08 20:57:00,
2013-07-08 17:03:00,84.7,75.5,30.03,SSW,196,3.0,5.0,74,0.00,,,0.00,Wunderground v.1.15,2013-07-08 21:03:00,
2013-07-08 17:08:00,84.8,75.6,30.03,West,277,4.0,6.0,74,0.00,,,0.00,Wunderground v.1.15,2013-07-08 21:08:00,
2013-07-08 17:13:00,85.0,75.8,30.03,West,275,3.0,5.0,74,0.00,,,0.00,Wunderground v.1.15,2013-07-08 21:13:00,
2013-07-08 17:18:00,85.1,75.9,30.03,West,274,4.0,5.0,74,0.00,,,0.00,Wunderground v.1.15,2013-07-08 21:18:00,
2013-07-08 17:25:00,85.2,76.8,30.02,West,271,5.0,6.0,76,0.00,,,0.00,Wunderground v.1.15,2013-07-08 21:25:00,
2013-07-08 17:30:00,85.0,76.2,30.02,West,271,4.0,6.0,75,0.00,,,0.00,Wunderground v.1.15,2013-07-08 21:30:00,
2013-07-08 17:35:00,84.8,76.4,30.02,West,271,3.0,5.0,76,0.00,,,0.00,Wunderground v.1.15,2013-07-08 21:35:00,
2013-07-08 17:40:00,84.8,76.8,30.02,SW,229,4.0,5.0,77,0.00,,,0.00,Wunderground v.1.15,2013-07-08 21:40:00,
2013-07-08 17:46:00,84.7,77.1,30.02,SW,235,4.0,6.0,78,0.00,,,0.00,Wunderground v.1.15,2013-07-08 21:46:00,
2013-07-08 17:51:00,84.5,76.1,30.01,SW,236,4.0,5.0,76,0.00,,,0.00,Wunderground v.1.15,2013-07-08 21:51:00,
2013-07-08 17:56:00,84.5,76.9,30.01,SW,234,5.0,7.0,78,0.00,,,0.00,Wunderground v.1.15,2013-07-08 21:56:00,
2013-07-08 18:02:00,84.7,77.5,30.01,SSW,211,6.0,6.0,79,0.00,,,0.00,Wunderground v.1.15,2013-07-08 22:02:00,
2013-07-08 18:07:00,84.9,76.9,30.01,SW,224,6.0,6.0,77,0.00,,,0.00,Wunderground v.1.15,2013-07-08 22:07:00,
2013-07-08 18:12:00,85.1,77.1,30.01,SW,221,4.0,6.0,77,0.00,,,0.00,Wunderground v.1.15,2013-07-08 22:12:00,
2013-07-08 18:18:00,85.3,78.0,30.02,SSW,205,6.0,9.0,79,0.00,,,0.00,Wunderground v.1.15,2013-07-08 22:18:00,
2013-07-08 18:23:00,85.1,77.5,30.02,South,186,6.0,6.0,78,0.00,,,0.00,Wunderground v.1.15,2013-07-08 22:23:00,
2013-07-08 18:28:00,84.9,76.9,30.02,SSW,192,5.0,7.0,77,0.00,,,0.00,Wunderground v.1.15,2013-07-08 22:28:00,
2013-07-08 18:34:00,84.7,76.7,30.02,South,188,4.0,7.0,77,0.00,,,0.00,Wunderground v.1.15,2013-07-08 22:34:00,
2013-07-08 18:39:00,84.7,77.5,30.03,SSW,199,4.0,7.0,79,0.00,,,0.00,Wunderground v.1.15,2013-07-08 22:39:00,
2013-07-08 18:44:00,84.7,77.5,30.03,SW,229,6.0,7.0,79,0.00,,,0.00,Wunderground v.1.15,2013-07-08 22:44:00,
2013-07-08 18:50:00,84.6,76.2,30.03,WSW,242,7.0,7.0,76,0.00,,,0.00,Wunderground v.1.15,2013-07-08 22:50:00,
2013-07-08 18:55:00,84.6,76.6,30.03,WSW,247,6.0,9.0,77,0.00,,,0.00,Wunderground v.1.15,2013-07-08 22:55:00,
2013-07-08 19:00:00,84.7,76.7,30.03,SW,234,7.0,7.0,77,0.00,,,0.00,Wunderground v.1.15,2013-07-08 23:00:00,
2013-07-08 19:05:00,84.7,77.1,30.03,SW,220,6.0,10.0,78,0.00,,,0.00,Wunderground v.1.15,2013-07-08 23:05:00,
2013-07-08 19:10:00,84.6,77.0,30.03,SW,232,5.0,7.0,78,0.00,,,0.00,Wunderground v.1.15,2013-07-08 23:10:00,
2013-07-08 19:16:00,84.5,76.9,30.03,WSW,237,8.0,9.0,78,0.00,,,0.00,Wunderground v.1.15,2013-07-08 23:16:00,
2013-07-08 19:21:00,84.3,75.9,30.03,WSW,254,10.0,10.0,76,0.00,,,0.00,Wunderground v.1.15,2013-07-08 23:21:00,
2013-07-08 19:29:00,84.3,75.5,30.03,WSW,249,7.0,10.0,75,0.00,,,0.00,Wunderground v.1.15,2013-07-08 23:29:00,
2013-07-08 19:34:00,84.1,75.7,30.03,WSW,248,8.0,11.0,76,0.00,,,0.00,Wunderground v.1.15,2013-07-08 23:34:00,
2013-07-08 19:39:00,84.1,76.1,30.03,WSW,239,10.0,11.0,77,0.00,,,0.00,Wunderground v.1.15,2013-07-08 23:39:00,
2013-07-08 19:44:00,84.0,76.4,30.03,WSW,240,8.0,11.0,78,0.00,,,0.00,Wunderground v.1.15,2013-07-08 23:44:00,
2013-07-08 19:49:00,84.0,76.0,30.03,WSW,247,7.0,11.0,77,0.00,,,0.00,Wunderground v.1.15,2013-07-08 23:49:00,
2013-07-08 19:54:00,83.9,75.5,30.03,WSW,240,8.0,11.0,76,0.00,,,0.00,Wunderground v.1.15,2013-07-08 23:54:00,
2013-07-08 20:00:00,84.0,76.4,30.03,WSW,241,7.0,9.0,78,0.00,,,0.00,Wunderground v.1.15,2013-07-09 00:00:00,
2013-07-08 20:05:00,83.9,76.3,30.03,SW,232,11.0,12.0,78,0.00,,,0.00,Wunderground v.1.15,2013-07-09 00:05:00,
2013-07-08 20:10:00,83.8,77.0,30.03,SW,228,10.0,12.0,80,0.00,,,0.00,Wunderground v.1.15,2013-07-09 00:10:00,
2013-07-08 20:15:00,83.7,77.6,30.04,SW,231,11.0,12.0,82,0.00,,,0.00,Wunderground v.1.15,2013-07-09 00:15:00,
2013-07-08 20:20:00,83.6,76.4,30.03,WSW,242,10.0,11.0,79,0.00,,,0.00,Wunderground v.1.15,2013-07-09 00:20:00,
2013-07-08 20:25:00,83.6,77.1,30.03,WSW,238,7.0,11.0,81,0.00,,,0.00,Wunderground v.1.15,2013-07-09 00:25:00,
2013-07-08 20:31:00,83.5,76.7,30.04,WSW,238,12.0,12.0,80,0.00,,,0.00,Wunderground v.1.15,2013-07-09 00:31:00,
2013-07-08 20:36:00,83.5,77.1,30.04,SW,227,7.0,12.0,81,0.00,,,0.00,Wunderground v.1.15,2013-07-09 00:36:00,
2013-07-08 20:41:00,83.4,76.6,30.04,SW,229,9.0,11.0,80,0.00,,,0.00,Wunderground v.1.15,2013-07-09 00:41:00,
2013-07-08 20:48:00,83.3,76.9,30.04,WSW,238,10.0,12.0,81,0.00,,,0.00,Wunderground v.1.15,2013-07-09 00:48:00,
2013-07-08 20:53:00,83.2,76.8,30.05,SW,236,8.0,10.0,81,0.00,,,0.00,Wunderground v.1.15,2013-07-09 00:53:00,
2013-07-08 20:59:00,83.2,76.8,30.05,SW,234,10.0,11.0,81,0.00,,,0.00,Wunderground v.1.15,2013-07-09 00:59:00,
2013-07-08 21:04:00,83.2,76.8,30.05,SW,230,11.0,12.0,81,0.00,,,0.00,Wunderground v.1.15,2013-07-09 01:04:00,
2013-07-08 21:11:00,83.1,76.3,30.06,SW,225,10.0,13.0,80,0.00,,,0.00,Wunderground v.1.15,2013-07-09 01:11:00,
2013-07-08 21:17:00,83.2,76.8,30.06,SW,235,12.0,13.0,81,0.00,,,0.00,Wunderground v.1.15,2013-07-09 01:17:00,
2013-07-08 21:22:00,83.1,76.7,30.06,SW,234,9.0,12.0,81,0.00,,,0.00,Wunderground v.1.15,2013-07-09 01:22:00,
2013-07-08 21:28:00,83.2,77.5,30.06,SW,227,8.0,12.0,83,0.00,,,0.00,Wunderground v.1.15,2013-07-09 01:28:00,
2013-07-08 21:34:00,83.1,77.8,30.06,SW,225,9.0,11.0,84,0.00,,,0.00,Wunderground v.1.15,2013-07-09 01:34:00,
2013-07-08 21:40:00,83.0,77.3,30.07,SW,229,9.0,12.0,83,0.00,,,0.00,Wunderground v.1.15,2013-07-09 01:40:00,
2013-07-08 21:46:00,83.0,77.7,30.07,SW,223,10.0,12.0,84,0.00,,,0.00,Wunderground v.1.15,2013-07-09 01:46:00,
2013-07-08 21:51:00,83.0,77.3,30.07,SW,227,7.0,12.0,83,0.00,,,0.00,Wunderground v.1.15,2013-07-09 01:51:00,
2013-07-08 21:57:00,82.9,77.2,30.07,SW,232,10.0,13.0,83,0.00,,,0.00,Wunderground v.1.15,2013-07-09 01:57:00,
2013-07-08 22:02:00,82.8,77.5,30.07,WSW,238,12.0,12.0,84,0.00,,,0.00,Wunderground v.1.15,2013-07-09 02:02:00,
2013-07-08 22:08:00,82.7,77.4,30.07,SW,230,11.0,14.0,84,0.00,,,0.00,Wunderground v.1.15,2013-07-09 02:08:00,
2013-07-08 22:13:00,82.6,77.3,30.07,WSW,241,12.0,13.0,84,0.00,,,0.00,Wunderground v.1.15,2013-07-09 02:13:00,
2013-07-08 22:18:00,82.6,76.9,30.07,SW,233,9.0,13.0,83,0.00,,,0.00,Wunderground v.1.15,2013-07-09 02:18:00,
2013-07-08 22:23:00,82.6,76.9,30.07,SW,235,9.0,11.0,83,0.00,,,0.00,Wunderground v.1.15,2013-07-09 02:23:00,
2013-07-08 22:29:00,82.6,77.3,30.07,WSW,241,6.0,12.0,84,0.00,,,0.00,Wunderground v.1.15,2013-07-09 02:29:00,
2013-07-08 22:34:00,82.5,76.8,30.07,SW,233,10.0,12.0,83,0.00,,,0.00,Wunderground v.1.15,2013-07-09 02:34:00,
2013-07-08 22:40:00,82.5,76.8,30.07,SW,236,8.0,9.0,83,0.00,,,0.00,Wunderground v.1.15,2013-07-09 02:40:00,
2013-07-08 22:46:00,82.4,76.3,30.07,SW,229,9.0,11.0,82,0.00,,,0.00,Wunderground v.1.15,2013-07-09 02:46:00,
2013-07-08 22:51:00,82.3,76.3,30.07,SW,234,7.0,10.0,82,0.00,,,0.00,Wunderground v.1.15,2013-07-09 02:51:00,
2013-07-08 22:56:00,82.3,76.6,30.07,SW,234,6.0,10.0,83,0.00,,,0.00,Wunderground v.1.15,2013-07-09 02:56:00,
2013-07-08 23:01:00,82.3,76.3,30.07,SW,234,7.0,10.0,82,0.00,,,0.00,Wunderground v.1.15,2013-07-09 03:01:00,
2013-07-08 23:07:00,82.3,75.9,30.07,SW,236,7.0,10.0,81,0.00,,,0.00,Wunderground v.1.15,2013-07-09 03:07:00,
2013-07-08 23:12:00,82.4,76.7,30.07,WSW,237,7.0,10.0,83,0.00,,,0.00,Wunderground v.1.15,2013-07-09 03:12:00,
2013-07-08 23:17:00,82.3,76.6,30.07,WSW,237,6.0,10.0,83,0.00,,,0.00,Wunderground v.1.15,2013-07-09 03:17:00,
2013-07-08 23:23:00,82.2,76.2,30.07,SW,234,7.0,10.0,82,0.00,,,0.00,Wunderground v.1.15,2013-07-09 03:23:00,
2013-07-08 23:28:00,82.2,76.5,30.07,WSW,237,9.0,11.0,83,0.00,,,0.00,Wunderground v.1.15,2013-07-09 03:28:00,
2013-07-08 23:33:00,82.3,77.3,30.07,SW,236,8.0,10.0,85,0.00,,,0.00,Wunderground v.1.15,2013-07-09 03:33:00,
2013-07-08 23:38:00,82.2,76.9,30.07,SW,234,8.0,11.0,84,0.00,,,0.00,Wunderground v.1.15,2013-07-09 03:38:00,
2013-07-08 23:43:00,82.1,76.8,30.07,SW,230,6.0,12.0,84,0.00,,,0.00,Wunderground v.1.15,2013-07-09 03:43:00,
2013-07-08 23:48:00,82.1,77.1,30.07,SW,225,5.0,12.0,85,0.00,,,0.00,Wunderground v.1.15,2013-07-09 03:48:00,
2013-07-08 23:54:00,81.9,76.6,30.07,SW,226,6.0,10.0,84,0.00,,,0.00,Wunderground v.1.15,2013-07-09 03:54:00,